Elcho, Wisconsin
Current Conditions -  °F | °C
As of 6:53 AM on Thursday 27 Nov 2014 (Local Time) from KRHI Reporting Station
Clear Clear  
Wind Chill: -6°   Ceiling: Unl
Heat Index:   Visibility: 10mi
Dew Point:   Wind: 5mph
Humidity: 87%   Direction: 300°WNW
Pressure: 30.27"   Gusts: NA
Location:  45.44°N, 89.18°W
Report Text: KRHI 271253Z AUTO 30004KT 10SM CLR M16/M18 A3027 RMK AO2 SLP287 T11611178
Loading
Personal Weather Stations






























Interactive Weather Map New forecast layout! Learn more

10-Day Weather Forecast

Advertisements
Track Severe Weather on mobile